Time;durP1;ratioP1;P1;durP2;ratioP2;P2;SDS_P1;SDS_P2;PMS_P1;PMS_P2;Temp;Humidity;BMP_temperature;BMP_pressure;BME280_temperature;BME280_humidity;BME280_pressure;Samples;Min_cycle;Max_cycle;Signal;HPM_P1;HPM_P2
2023/07/01 00:02:04;;;;;;;;;;;;;;;19.26;62.83;100704.22;4999563;28;19977;-70
2023/07/01 00:04:30;;;;;;;;;;;;;;;19.23;61.72;100705.47;4999810;28;20398;-70
2023/07/01 00:06:57;;;;;;;;;;;;;;;19.27;61.71;100695.25;4996048;28;20003;-69
2023/07/01 00:09:26;;;;;;;;;;;;;;;19.20;60.50;100691.78;4999212;28;19968;-69
2023/07/01 00:11:53;;;;;;;;;;;;;;;19.16;60.55;100684.19;5000194;28;19925;-70
2023/07/01 00:14:19;;;;;;;;;;;;;;;19.19;60.28;100672.34;4998031;28;19936;-70
2023/07/01 00:16:46;;;;;;;;;;;;;;;19.27;60.97;100666.00;5003456;28;19992;-69
2023/07/01 00:19:12;;;;;;;;;;;;;;;19.26;59.46;100665.16;4987853;28;19929;-69
2023/07/01 00:21:38;;;;;;;;;;;;;;;19.21;58.60;100675.63;4999935;28;20020;-70
2023/07/01 00:24:05;;;;;;;;;;;;;;;19.14;58.81;100670.28;4999434;28;19930;-69
2023/07/01 00:26:31;;;;;;;;;;;;;;;19.21;59.06;100664.13;5000462;28;19930;-69
2023/07/01 00:28:58;;;;;;;;;;;;;;;19.19;58.92;100661.72;5004691;28;19979;-69
2023/07/01 00:31:24;;;;;;;;;;;;;;;19.12;58.97;100663.56;4976395;28;20123;-69
2023/07/01 00:33:51;;;;;;;;;;;;;;;19.07;59.46;100656.22;4996629;28;19991;-70
2023/07/01 00:36:17;;;;;;;;;;;;;;;19.09;59.81;100651.50;4993646;28;19945;-70
2023/07/01 00:38:43;;;;;;;;;;;;;;;19.07;59.90;100644.72;5002083;28;20020;-69
2023/07/01 00:41:10;;;;;;;;;;;;;;;19.08;60.13;100646.38;4998450;28;20444;-69
2023/07/01 00:43:36;;;;;;;;;;;;;;;19.02;59.79;100645.34;5003361;28;19936;-69
2023/07/01 00:46:03;;;;;;;;;;;;;;;18.98;59.43;100638.81;4995085;28;19973;-70
2023/07/01 00:48:30;;;;;;;;;;;;;;;18.96;59.32;100636.38;4993720;28;19941;-69
2023/07/01 00:50:56;;;;;;;;;;;;;;;18.94;59.40;100632.28;4984206;28;19937;-69
2023/07/01 00:53:23;;;;;;;;;;;;;;;19.05;58.83;100622.84;4993963;28;20231;-69
2023/07/01 00:55:51;;;;;;;;;;;;;;;19.00;58.10;100626.16;5003950;28;20016;-70
2023/07/01 00:58:17;;;;;;;;;;;;;;;19.01;58.05;100617.13;4986180;28;19929;-68
2023/07/01 01:00:43;;;;;;;;;;;;;;;19.06;58.24;100621.84;4995475;28;19957;-67
2023/07/01 01:03:21;;;;;;;;;;;;;;;18.99;58.20;100623.69;5002713;28;19937;-67
2023/07/01 01:06:07;;;;;;;;;;;;;;;18.98;58.67;100619.41;4998812;28;19961;-65
2023/07/01 01:08:57;;;;;;;;;;;;;;;18.97;58.88;100618.56;5005772;28;19933;-66
2023/07/01 01:11:25;;;;;;;;;;;;;;;18.89;60.16;100611.63;4997731;28;19929;-67
2023/07/01 01:13:53;;;;;;;;;;;;;;;18.90;59.89;100609.81;5002422;28;20774;-70
2023/07/01 01:16:19;;;;;;;;;;;;;;;18.93;60.18;100612.88;4982573;28;19961;-68
2023/07/01 01:18:47;;;;;;;;;;;;;;;18.91;60.44;100604.25;5003354;28;19926;-69
2023/07/01 01:21:15;;;;;;;;;;;;;;;18.86;60.39;100598.78;5004838;28;19975;-68
2023/07/01 01:23:49;;;;;;;;;;;;;;;18.88;61.09;100594.06;4997386;28;19937;-69
2023/07/01 01:26:18;;;;;;;;;;;;;;;18.87;61.60;100588.94;4989060;28;19953;-68
2023/07/01 01:28:44;;;;;;;;;;;;;;;18.97;61.71;100592.00;4994557;28;19968;-69
2023/07/01 01:31:11;;;;;;;;;;;;;;;18.96;61.35;100582.41;4991190;28;19987;-69
2023/07/01 01:33:39;;;;;;;;;;;;;;;18.91;61.89;100590.16;5003357;28;19948;-68
2023/07/01 01:36:18;;;;;;;;;;;;;;;18.83;62.63;100583.22;5012132;28;20021;-67
2023/07/01 01:38:45;;;;;;;;;;;;;;;18.85;63.09;100580.38;5003024;28;19959;-68
2023/07/01 01:41:15;;;;;;;;;;;;;;;18.85;63.16;100569.75;5004728;28;19973;-68
2023/07/01 01:43:45;;;;;;;;;;;;;;;18.80;63.10;100558.91;4987055;28;19940;-70
2023/07/01 01:46:12;;;;;;;;;;;;;;;18.78;62.96;100567.06;5007561;28;19985;-69
2023/07/01 01:48:39;;;;;;;;;;;;;;;18.81;63.14;100560.56;4990039;28;20014;-69
2023/07/01 01:51:07;;;;;;;;;;;;;;;18.83;63.39;100555.84;5012357;28;19940;-68
2023/07/01 01:53:35;;;;;;;;;;;;;;;18.81;63.73;100550.72;5015987;28;20298;-68
2023/07/01 01:56:02;;;;;;;;;;;;;;;18.81;64.05;100544.59;4996771;28;19929;-71
2023/07/01 01:58:29;;;;;;;;;;;;;;;18.77;64.78;100544.16;5006805;28;20470;-68
2023/07/01 02:00:55;;;;;;;;;;;;;;;18.73;65.10;100542.94;5001881;28;20032;-68
2023/07/01 02:03:21;;;;;;;;;;;;;;;18.68;65.34;100540.94;5002006;28;20275;-69
2023/07/01 02:05:48;;;;;;;;;;;;;;;18.64;65.64;100542.38;4991781;28;20369;-67
2023/07/01 02:08:14;;;;;;;;;;;;;;;18.71;66.08;100539.69;4998366;28;20279;-67
2023/07/01 02:10:41;;;;;;;;;;;;;;;18.68;66.84;100540.09;5003916;28;19933;-68
2023/07/01 02:13:07;;;;;;;;;;;;;;;18.62;68.01;100547.06;5005855;28;20413;-68
2023/07/01 02:15:34;;;;;;;;;;;;;;;18.60;69.17;100529.69;5013159;28;20621;-67
2023/07/01 02:18:00;;;;;;;;;;;;;;;18.58;70.31;100524.56;5002526;28;20369;-68
2023/07/01 02:20:26;;;;;;;;;;;;;;;18.47;71.63;100543.81;5007181;28;19992;-67
2023/07/01 02:22:53;;;;;;;;;;;;;;;18.48;71.92;100526.84;5003120;28;19976;-71
2023/07/01 02:25:19;;;;;;;;;;;;;;;18.48;72.38;100526.84;4997025;28;19985;-71
2023/07/01 02:27:46;;;;;;;;;;;;;;;18.50;72.61;100520.31;5008069;28;19926;-72
2023/07/01 02:30:12;;;;;;;;;;;;;;;18.50;73.14;100507.03;5003799;28;19930;-72
2023/07/01 02:32:39;;;;;;;;;;;;;;;18.44;73.55;100502.53;5007789;28;20421;-72
2023/07/01 02:35:05;;;;;;;;;;;;;;;18.47;74.12;100511.94;5001695;28;19960;-71
2023/07/01 02:37:32;;;;;;;;;;;;;;;18.49;75.63;100510.69;5000886;28;20212;-72
2023/07/01 02:39:58;;;;;;;;;;;;;;;18.47;79.23;100506.63;5004021;28;20049;-67
2023/07/01 02:42:25;;;;;;;;;;;;;;;18.36;83.34;100518.66;5002794;28;19969;-67
2023/07/01 02:44:51;;;;;;;;;;;;;;;18.29;85.86;100507.25;5003947;28;20156;-69
2023/07/01 02:47:18;;;;;;;;;;;;;;;18.26;87.35;100502.34;4999328;28;19960;-67
2023/07/01 02:49:44;;;;;;;;;;;;;;;18.16;87.45;100502.75;5000624;28;19929;-67
2023/07/01 02:52:13;;;;;;;;;;;;;;;18.15;87.15;100503.75;4996914;28;19937;-68
2023/07/01 02:54:40;;;;;;;;;;;;;;;18.13;87.27;100489.88;5009069;28;20015;-67
2023/07/01 02:57:07;;;;;;;;;;;;;;;18.12;87.46;100490.91;5007041;28;20330;-68
2023/07/01 02:59:34;;;;;;;;;;;;;;;18.06;89.58;100513.78;5000287;28;20378;-67
2023/07/01 03:02:01;;;;;;;;;;;;;;;18.01;92.65;100484.34;5010886;28;20378;-68
2023/07/01 03:04:27;;;;;;;;;;;;;;;17.91;93.13;100490.06;5009049;28;19931;-69
2023/07/01 03:06:54;;;;;;;;;;;;;;;17.96;92.37;100484.16;4992005;28;19981;-68
2023/07/01 03:09:20;;;;;;;;;;;;;;;18.04;90.57;100483.97;5001791;28;20149;-68
2023/07/01 03:11:46;;;;;;;;;;;;;;;18.05;89.92;100479.47;5022334;28;19929;-68
2023/07/01 03:14:13;;;;;;;;;;;;;;;18.16;88.42;100477.00;5011531;28;20247;-69
2023/07/01 03:16:42;;;;;;;;;;;;;;;18.17;88.64;100467.25;5001698;28;20008;-68
2023/07/01 03:19:08;;;;;;;;;;;;;;;17.94;100.00;100480.91;5002500;28;20305;-69
2023/07/01 03:21:36;;;;;;;;;;;;;;;17.93;100.00;100464.16;4997027;28;19987;-68
2023/07/01 03:24:02;;;;;;;;;;;;;;;17.88;100.00;100461.31;5007580;28;20031;-69
2023/07/01 03:26:28;;;;;;;;;;;;;;;17.90;100.00;100467.22;4998883;28;19984;-68
2023/07/01 03:28:55;;;;;;;;;;;;;;;17.81;100.00;100467.59;5008658;28;19984;-67
2023/07/01 03:31:21;;;;;;;;;;;;;;;17.64;100.00;100461.84;4995886;28;20990;-70
2023/07/01 03:33:48;;;;;;;;;;;;;;;17.61;100.00;100443.69;4992258;28;19925;-67
2023/07/01 03:36:15;;;;;;;;;;;;;;;17.63;100.00;100453.06;5004680;28;19929;-67
2023/07/01 03:38:41;;;;;;;;;;;;;;;17.62;100.00;100445.31;5003885;28;19984;-68
2023/07/01 03:41:08;;;;;;;;;;;;;;;17.55;100.00;100446.13;5016126;28;19929;-68
2023/07/01 03:43:34;;;;;;;;;;;;;;;17.50;100.00;100445.09;5002160;28;19960;-68
2023/07/01 03:46:01;;;;;;;;;;;;;;;17.39;100.00;100444.66;5008916;28;20417;-68
2023/07/01 03:48:27;;;;;;;;;;;;;;;17.34;100.00;100441.78;5008296;28;20012;-68
2023/07/01 03:50:54;;;;;;;;;;;;;;;17.36;100.00;100437.09;4987498;28;19984;-68
2023/07/01 03:53:20;;;;;;;;;;;;;;;17.41;100.00;100433.88;5006089;28;19929;-68
2023/07/01 03:55:47;;;;;;;;;;;;;;;17.35;100.00;100432.03;4999547;28;20342;-70
2023/07/01 03:58:21;;;;;;;;;;;;;;;17.37;100.00;100427.34;5009506;28;19979;-69
2023/07/01 04:00:48;;;;;;;;;;;;;;;17.44;100.00;100425.50;4997296;28;20283;-69
2023/07/01 04:03:14;;;;;;;;;;;;;;;17.52;100.00;100424.50;5004718;28;19953;-68
2023/07/01 04:05:41;;;;;;;;;;;;;;;17.44;100.00;100425.50;4999161;28;19926;-68
2023/07/01 04:08:07;;;;;;;;;;;;;;;17.44;100.00;100425.50;5000971;28;20020;-68
2023/07/01 04:10:34;;;;;;;;;;;;;;;17.42;100.00;100418.78;5011382;28;20023;-65
2023/07/01 04:13:00;;;;;;;;;;;;;;;17.41;100.00;100417.16;5004727;28;19969;-65
2023/07/01 04:15:27;;;;;;;;;;;;;;;17.42;100.00;100413.47;5000481;28;20024;-71
2023/07/01 04:17:54;;;;;;;;;;;;;;;17.39;100.00;100414.69;4998576;28;20027;-68
2023/07/01 04:20:20;;;;;;;;;;;;;;;17.39;100.00;100412.84;5011794;28;19925;-68
2023/07/01 04:22:47;;;;;;;;;;;;;;;17.43;100.00;100410.63;5005295;28;21017;-69
2023/07/01 04:25:14;;;;;;;;;;;;;;;17.38;100.00;100421.00;5002723;28;19993;-67
2023/07/01 04:27:43;;;;;;;;;;;;;;;17.30;100.00;100416.69;4998107;28;19926;-71
2023/07/01 04:30:10;;;;;;;;;;;;;;;17.26;100.00;100404.88;4998132;28;19952;-68
2023/07/01 04:32:37;;;;;;;;;;;;;;;17.23;100.00;100399.97;5009644;28;20381;-68
2023/07/01 04:35:04;;;;;;;;;;;;;;;17.23;100.00;100401.78;5001575;28;19929;-67
2023/07/01 04:37:30;;;;;;;;;;;;;;;17.14;100.00;100409.94;5004816;28;19929;-67
2023/07/01 04:39:56;;;;;;;;;;;;;;;17.13;100.00;100400.38;5006785;28;20436;-67
2023/07/01 04:42:23;;;;;;;;;;;;;;;17.07;100.00;100402.97;4997183;28;20020;-67
2023/07/01 04:44:53;;;;;;;;;;;;;;;16.98;100.00;100397.06;5005409;28;19925;-68
2023/07/01 04:47:21;;;;;;;;;;;;;;;17.01;100.00;100388.69;5002121;28;19933;-68
2023/07/01 04:49:48;;;;;;;;;;;;;;;16.84;100.00;100398.00;5009551;28;19929;-67
2023/07/01 04:52:15;;;;;;;;;;;;;;;16.81;100.00;100391.25;5004251;28;19965;-68
2023/07/01 04:54:41;;;;;;;;;;;;;;;16.83;100.00;100396.38;5008727;28;19929;-68
2023/07/01 04:57:08;;;;;;;;;;;;;;;16.80;100.00;100398.38;5006116;28;19929;-70
2023/07/01 04:59:34;;;;;;;;;;;;;;;16.82;100.00;100392.09;4996857;28;20031;-67
2023/07/01 05:02:00;;;;;;;;;;;;;;;16.78;100.00;100386.34;5010299;28;20304;-67
2023/07/01 05:04:27;;;;;;;;;;;;;;;16.78;100.00;100389.00;5004042;28;19930;-68
2023/07/01 05:06:53;;;;;;;;;;;;;;;16.80;100.00;100384.31;5015065;28;19940;-68
2023/07/01 05:09:20;;;;;;;;;;;;;;;16.79;100.00;100380.03;5006176;28;19976;-70
2023/07/01 05:11:46;;;;;;;;;;;;;;;16.72;100.00;100392.41;5000909;28;19936;-68
2023/07/01 05:14:12;;;;;;;;;;;;;;;16.68;100.00;100380.59;5012572;28;19992;-69
2023/07/01 05:16:39;;;;;;;;;;;;;;;16.65;100.00;100387.09;5007703;28;19975;-69
2023/07/01 05:19:05;;;;;;;;;;;;;;;16.63;100.00;100381.19;5011789;28;19969;-69
2023/07/01 05:21:32;;;;;;;;;;;;;;;16.73;100.00;100378.19;4993334;28;20012;-69
2023/07/01 05:23:59;;;;;;;;;;;;;;;16.78;100.00;100379.22;5005483;28;19999;-68
2023/07/01 05:26:26;;;;;;;;;;;;;;;16.78;100.00;100365.97;5000650;28;19929;-68
2023/07/01 05:28:54;;;;;;;;;;;;;;;16.70;100.00;100368.81;5009018;28;19925;-67
2023/07/01 05:31:21;;;;;;;;;;;;;;;16.70;100.00;100370.63;5010307;28;19933;-69
2023/07/01 05:33:47;;;;;;;;;;;;;;;16.71;100.00;100381.00;5006331;28;19940;-69
2023/07/01 05:36:14;;;;;;;;;;;;;;;16.70;100.00;100374.09;5010212;28;20532;-68
2023/07/01 05:38:40;;;;;;;;;;;;;;;16.62;100.00;100376.91;4998736;28;20558;-69
2023/07/01 05:41:06;;;;;;;;;;;;;;;16.56;100.00;100369.75;4991296;28;19930;-68
2023/07/01 05:43:33;;;;;;;;;;;;;;;16.51;100.00;100388.06;5010137;28;20389;-68
2023/07/01 05:45:59;;;;;;;;;;;;;;;16.54;100.00;100377.06;4992057;28;20020;-68
2023/07/01 05:48:26;;;;;;;;;;;;;;;16.54;100.00;100367.31;5009019;28;20366;-69
2023/07/01 05:50:52;;;;;;;;;;;;;;;16.51;100.00;100365.03;4988137;28;19960;-67
2023/07/01 05:53:18;;;;;;;;;;;;;;;16.52;100.00;100360.56;5007587;28;19929;-67
2023/07/01 05:55:45;;;;;;;;;;;;;;;16.50;100.00;100362.59;4996313;28;20334;-68
2023/07/01 05:58:11;;;;;;;;;;;;;;;16.50;100.00;100357.28;4996330;28;20261;-66
2023/07/01 06:00:37;;;;;;;;;;;;;;;16.55;100.00;100365.47;5008102;28;20016;-66
2023/07/01 06:03:04;;;;;;;;;;;;;;;16.54;100.00;100363.81;5005903;28;19931;-66
2023/07/01 06:05:30;;;;;;;;;;;;;;;16.64;100.00;100368.75;4990356;28;19930;-67
2023/07/01 06:07:57;;;;;;;;;;;;;;;16.67;100.00;100368.38;5000481;28;20606;-66
2023/07/01 06:10:23;;;;;;;;;;;;;;;16.52;100.00;100360.56;5013557;28;20332;-66
2023/07/01 06:12:49;;;;;;;;;;;;;;;16.58;100.00;100352.66;5005049;28;19929;-66
2023/07/01 06:15:16;;;;;;;;;;;;;;;16.63;100.00;100351.25;4995347;28;19945;-65
2023/07/01 06:17:42;;;;;;;;;;;;;;;16.75;100.00;100353.13;5003708;28;20543;-67
2023/07/01 06:20:09;;;;;;;;;;;;;;;16.72;100.00;100350.88;5008214;28;20036;-66
2023/07/01 06:22:35;;;;;;;;;;;;;;;16.77;100.00;100355.56;5006137;28;20580;-66
2023/07/01 06:25:02;;;;;;;;;;;;;;;16.86;100.00;100349.13;4989226;28;20465;-67
2023/07/01 06:27:29;;;;;;;;;;;;;;;16.83;100.00;100357.47;5005451;28;19933;-66
2023/07/01 06:29:56;;;;;;;;;;;;;;;16.79;100.00;100349.06;5000604;28;20678;-64
2023/07/01 06:32:22;;;;;;;;;;;;;;;16.86;100.00;100348.31;5002650;28;20040;-65
2023/07/01 06:34:51;;;;;;;;;;;;;;;16.86;100.00;100354.44;5004423;28;20277;-66
2023/07/01 06:37:17;;;;;;;;;;;;;;;16.89;100.00;100348.72;5004837;28;19929;-64
2023/07/01 06:39:43;;;;;;;;;;;;;;;16.97;100.00;100350.38;5002028;28;20487;-64
2023/07/01 06:42:10;;;;;;;;;;;;;;;16.92;100.00;100344.88;4999654;28;19996;-65
2023/07/01 06:44:37;;;;;;;;;;;;;;;16.88;100.00;100344.44;5006414;28;19929;-66
2023/07/01 06:47:05;;;;;;;;;;;;;;;16.89;100.00;100354.00;4998200;28;19926;-66
2023/07/01 06:49:32;;;;;;;;;;;;;;;16.96;100.00;100343.44;5007522;28;19930;-68
2023/07/01 06:51:58;;;;;;;;;;;;;;;16.84;100.00;100348.50;5004938;28;20346;-67
2023/07/01 06:54:25;;;;;;;;;;;;;;;16.90;100.00;100342.41;4999751;28;19925;-68
2023/07/01 06:56:51;;;;;;;;;;;;;;;16.86;100.00;100351.78;4987618;28;19930;-69
2023/07/01 06:59:18;;;;;;;;;;;;;;;16.87;100.00;100339.34;4984935;28;19929;-67
2023/07/01 07:01:44;;;;;;;;;;;;;;;16.94;100.00;100348.13;5008819;28;19937;-66
2023/07/01 07:04:10;;;;;;;;;;;;;;;17.02;100.00;100349.78;5005670;28;20389;-65
2023/07/01 07:06:37;;;;;;;;;;;;;;;17.00;100.00;100339.38;5006130;28;20405;-67
2023/07/01 07:09:03;;;;;;;;;;;;;;;16.96;100.00;100346.91;4996510;28;19934;-68
2023/07/01 07:11:30;;;;;;;;;;;;;;;16.99;100.00;100335.09;5003834;28;19929;-65
2023/07/01 07:13:57;;;;;;;;;;;;;;;17.02;100.00;100334.69;4991039;28;19973;-66
2023/07/01 07:16:23;;;;;;;;;;;;;;;17.06;100.00;100338.56;5003754;28;19925;-67
2023/07/01 07:18:51;;;;;;;;;;;;;;;17.10;100.00;100344.28;5009652;28;19929;-69
2023/07/01 07:21:17;;;;;;;;;;;;;;;17.14;100.00;100329.63;4999421;28;21801;-65
2023/07/01 07:23:44;;;;;;;;;;;;;;;17.20;100.00;100326.97;4999921;28;20300;-66
2023/07/01 07:26:13;;;;;;;;;;;;;;;17.24;100.00;100323.94;5004218;28;20642;-67
2023/07/01 07:28:40;;;;;;;;;;;;;;;17.22;100.00;100325.97;4990850;28;19925;-70
2023/07/01 07:31:06;;;;;;;;;;;;;;;17.22;100.00;100325.97;5006649;28;19929;-70
2023/07/01 07:33:32;;;;;;;;;;;;;;;17.24;100.00;100323.94;4998675;28;19929;-68
2023/07/01 07:35:59;;;;;;;;;;;;;;;17.19;100.00;100319.25;5001630;28;19960;-72
2023/07/01 07:38:25;;;;;;;;;;;;;;;17.17;100.00;100329.19;4998421;28;19932;-69
2023/07/01 07:40:52;;;;;;;;;;;;;;;17.19;100.00;100324.53;5008041;28;20737;-70
2023/07/01 07:43:19;;;;;;;;;;;;;;;17.30;100.00;100325.78;5001664;28;19937;-70
2023/07/01 07:45:45;;;;;;;;;;;;;;;17.29;100.00;100318.81;4988299;28;20003;-70
2023/07/01 07:48:11;;;;;;;;;;;;;;;17.26;100.00;100322.69;5003565;28;19964;-70
2023/07/01 07:50:38;;;;;;;;;;;;;;;17.34;100.00;100321.69;4996684;28;19944;-69
2023/07/01 07:53:04;;;;;;;;;;;;;;;17.29;100.00;100330.25;4999593;28;19926;-70
2023/07/01 07:55:35;;;;;;;;;;;;;;;17.30;100.00;100315.16;4994356;28;20032;-69
2023/07/01 07:58:01;;;;;;;;;;;;;;;17.26;100.00;100319.25;5005906;28;20019;-71
2023/07/01 08:00:28;;;;;;;;;;;;;;;17.32;100.00;100323.72;5003268;28;19996;-70
2023/07/01 08:02:54;;;;;;;;;;;;;;;17.36;100.00;100323.09;4997419;28;19926;-70
2023/07/01 08:05:21;;;;;;;;;;;;;;;17.33;100.00;100323.53;4995370;28;19933;-69
2023/07/01 08:07:48;;;;;;;;;;;;;;;17.32;100.00;100326.38;4984341;28;19934;-71
2023/07/01 08:10:17;;;;;;;;;;;;;;;17.31;100.00;100324.75;5004087;28;20302;-70
2023/07/01 08:12:44;;;;;;;;;;;;;;;17.25;100.00;100328.19;4997499;28;19980;-70
2023/07/01 08:15:10;;;;;;;;;;;;;;;17.23;100.00;100325.78;5011086;28;20554;-70
2023/07/01 08:17:37;;;;;;;;;;;;;;;17.22;100.00;100318.81;5003908;28;19937;-70
2023/07/01 08:20:04;;;;;;;;;;;;;;;17.16;100.00;100320.44;5003916;28;20515;-69
2023/07/01 08:22:33;;;;;;;;;;;;;;;17.16;100.00;100325.75;5007815;28;19986;-70
2023/07/01 08:25:00;;;;;;;;;;;;;;;17.06;100.00;100335.13;4987943;28;19969;-69
2023/07/01 08:27:27;;;;;;;;;;;;;;;17.09;100.00;100321.44;4997629;28;19930;-70
2023/07/01 08:29:54;;;;;;;;;;;;;;;17.10;100.00;100318.59;5003618;28;19925;-70
2023/07/01 08:32:20;;;;;;;;;;;;;;;17.10;100.00;100318.59;4986111;28;19965;-69
2023/07/01 08:34:46;;;;;;;;;;;;;;;17.11;100.00;100319.41;4992809;28;20015;-70
2023/07/01 08:37:13;;;;;;;;;;;;;;;17.22;100.00;100312.72;4993568;28;19929;-71
2023/07/01 08:39:39;;;;;;;;;;;;;;;17.27;100.00;100308.44;5005567;28;19968;-70
2023/07/01 08:42:09;;;;;;;;;;;;;;;17.39;100.00;100308.66;5001841;28;19941;-70
2023/07/01 08:44:37;;;;;;;;;;;;;;;17.45;100.00;100310.47;4991716;28;19932;-70
2023/07/01 08:47:04;;;;;;;;;;;;;;;17.45;100.00;100307.84;4981385;28;19925;-70
2023/07/01 08:49:31;;;;;;;;;;;;;;;17.32;100.00;100313.13;5010612;28;19994;-69
2023/07/01 08:52:03;;;;;;;;;;;;;;;17.41;100.00;100308.47;4996301;28;19930;-70
2023/07/01 08:54:32;;;;;;;;;;;;;;;17.44;100.00;100315.97;5000095;28;20301;-70
2023/07/01 08:56:58;;;;;;;;;;;;;;;17.46;100.00;100300.69;5001546;28;20034;-69
2023/07/01 08:59:25;;;;;;;;;;;;;;;17.53;100.00;100312.13;4994192;28;19925;-70
2023/07/01 09:01:52;;;;;;;;;;;;;;;17.53;100.00;100304.97;5016407;28;20940;-68
2023/07/01 09:04:19;;;;;;;;;;;;;;;17.44;100.00;100310.69;4990473;28;19943;-70
2023/07/01 09:06:45;;;;;;;;;;;;;;;17.45;100.00;100313.13;5011650;28;19925;-67
2023/07/01 09:09:11;;;;;;;;;;;;;;;17.45;100.00;100307.84;5015564;28;19937;-69
2023/07/01 09:11:38;;;;;;;;;;;;;;;17.45;100.00;100310.47;5018779;28;20175;-70
2023/07/01 09:14:04;;;;;;;;;;;;;;;17.45;100.00;100307.84;5010208;28;19937;-72
2023/07/01 09:16:35;;;;;;;;;;;;;;;17.64;100.00;100303.56;5005859;28;19975;-71
2023/07/01 09:19:06;;;;;;;;;;;;;;;17.63;100.00;100301.91;5012673;28;19937;-70
2023/07/01 09:21:33;;;;;;;;;;;;;;;17.45;100.00;100299.06;4992768;28;20768;-71
2023/07/01 09:24:00;;;;;;;;;;;;;;;17.49;100.00;100300.28;5010188;28;19917;-71
2023/07/01 09:26:28;;;;;;;;;;;;;;;17.41;100.00;100309.25;5016280;28;20068;-69
2023/07/01 09:28:56;;;;;;;;;;;;;;;17.41;100.00;100303.16;5005713;28;19926;-70
2023/07/01 09:31:22;;;;;;;;;;;;;;;17.49;100.00;100292.34;4989071;28;19934;-70
2023/07/01 09:33:58;;;;;;;;;;;;;;;17.59;100.00;100282.13;4996404;28;20266;-70
2023/07/01 09:36:26;;;;;;;;;;;;;;;17.55;100.00;100286.22;5008512;28;19988;-70
2023/07/01 09:38:54;;;;;;;;;;;;;;;17.62;100.00;100291.50;5006633;28;19933;-70
2023/07/01 09:41:23;;;;;;;;;;;;;;;17.56;100.00;100291.31;5007279;28;19926;-70
2023/07/01 09:43:50;;;;;;;;;;;;;;;17.60;100.00;100289.03;5000163;28;19932;-69
2023/07/01 09:46:16;;;;;;;;;;;;;;;17.61;100.00;100288.03;5005798;28;20561;-70
2023/07/01 09:48:53;;;;;;;;;;;;;;;17.56;100.00;100291.31;5000703;28;20443;-70
2023/07/01 09:51:20;;;;;;;;;;;;;;;17.54;100.00;100292.53;4989961;28;19933;-69
2023/07/01 09:53:47;;;;;;;;;;;;;;;17.56;100.00;100283.34;5004817;28;20337;-69
2023/07/01 09:56:16;;;;;;;;;;;;;;;17.56;100.00;100283.34;4996790;28;20296;-69
2023/07/01 09:58:43;;;;;;;;;;;;;;;17.65;100.00;100283.16;5003234;28;19929;-68
2023/07/01 10:01:13;;;;;;;;;;;;;;;17.66;100.00;100277.63;5004212;28;19932;-68
2023/07/01 10:03:40;;;;;;;;;;;;;;;17.68;100.00;100275.59;5007054;28;19926;-69
2023/07/01 10:06:07;;;;;;;;;;;;;;;17.76;100.00;100278.03;5002858;28;19972;-68
2023/07/01 10:08:34;;;;;;;;;;;;;;;17.91;100.00;100271.69;5005102;28;19929;-68
2023/07/01 10:11:06;;;;;;;;;;;;;;;17.94;100.00;100269.44;5007665;28;20399;-69
2023/07/01 10:13:37;;;;;;;;;;;;;;;18.04;100.00;100276.97;5006812;28;19929;-68
2023/07/01 10:16:05;;;;;;;;;;;;;;;18.05;100.00;100273.28;5009280;28;20385;-68
2023/07/01 10:18:33;;;;;;;;;;;;;;;18.08;100.00;100262.25;5001231;28;19925;-68
2023/07/01 10:21:18;;;;;;;;;;;;;;;18.09;100.00;100276.31;5007932;28;19930;-67
2023/07/01 10:23:45;;;;;;;;;;;;;;;18.13;100.00;100269.56;4984601;28;20287;-67
2023/07/01 10:26:30;;;;;;;;;;;;;;;18.10;100.00;100262.84;5006988;28;20352;-66
2023/07/01 10:28:56;;;;;;;;;;;;;;;18.13;100.00;100265.09;5002610;28;19929;-68
2023/07/01 10:31:23;;;;;;;;;;;;;;;18.07;100.00;100260.63;5009983;28;20302;-68
2023/07/01 10:33:50;;;;;;;;;;;;;;;18.11;100.00;100264.50;5008031;28;19929;-67
2023/07/01 10:36:19;;;;;;;;;;;;;;;18.14;100.00;100263.25;4994104;28;20868;-66
2023/07/01 10:38:46;;;;;;;;;;;;;;;18.07;100.00;100268.59;5003205;28;19925;-67
2023/07/01 10:41:12;;;;;;;;;;;;;;;18.10;100.00;100262.06;5005590;28;19960;-69
2023/07/01 10:43:39;;;;;;;;;;;;;;;18.09;100.00;100268.38;5008381;28;20458;-68
2023/07/01 10:46:13;;;;;;;;;;;;;;;18.16;100.00;100256.72;5000578;28;19929;-70
2023/07/01 10:48:40;;;;;;;;;;;;;;;18.15;100.00;100263.06;5011999;28;20017;-67
2023/07/01 10:51:08;;;;;;;;;;;;;;;18.16;100.00;100258.56;4991403;28;20402;-68
2023/07/01 10:53:55;;;;;;;;;;;;;;;18.27;100.00;100267.69;5004094;28;21329;-67
2023/07/01 10:56:21;;;;;;;;;;;;;;;18.31;100.00;100255.66;5006033;28;19937;-68
2023/07/01 10:59:06;;;;;;;;;;;;;;;18.32;100.00;100255.41;4999657;28;20402;-66
2023/07/01 11:01:47;;;;;;;;;;;;;;;18.28;100.00;100256.88;5003651;28;19929;-67
2023/07/01 11:04:14;;;;;;;;;;;;;;;18.42;100.00;100254.16;4995705;28;19929;-66
2023/07/01 11:06:47;;;;;;;;;;;;;;;18.51;100.00;100244.94;5004292;28;19936;-66
2023/07/01 11:09:13;;;;;;;;;;;;;;;18.53;100.00;100246.34;4998381;28;19962;-67
2023/07/01 11:11:41;;;;;;;;;;;;;;;18.62;100.00;100252.22;5009549;28;20377;-67
2023/07/01 11:14:08;;;;;;;;;;;;;;;18.66;100.00;100249.94;5009368;28;19979;-67
2023/07/01 11:16:35;;;;;;;;;;;;;;;18.73;100.00;100250.72;5003513;28;20190;-67
2023/07/01 11:19:06;;;;;;;;;;;;;;;18.83;100.00;100247.63;5006883;28;20371;-66
2023/07/01 11:21:33;;;;;;;;;;;;;;;18.91;100.00;100242.84;4995940;28;19964;-67
2023/07/01 11:24:03;;;;;;;;;;;;;;;19.08;100.00;100245.81;5005131;28;21344;-65
2023/07/01 11:26:31;;;;;;;;;;;;;;;19.10;100.00;100234.97;4990943;28;19976;-66
2023/07/01 11:28:58;;;;;;;;;;;;;;;19.15;100.00;100232.44;5002059;28;19976;-67
2023/07/01 11:31:25;;;;;;;;;;;;;;;19.25;100.00;100234.63;4998348;28;20394;-67
2023/07/01 11:33:53;;;;;;;;;;;;;;;19.25;100.00;100232.78;4992719;28;19952;-67
2023/07/01 11:36:20;;;;;;;;;;;;;;;19.45;100.00;100234.47;5010357;28;19933;-67
2023/07/01 11:38:48;;;;;;;;;;;;;;;19.54;100.00;100222.47;5001888;28;20449;-67
2023/07/01 11:41:16;;;;;;;;;;;;;;;19.68;100.00;100228.47;5012576;28;19925;-67
2023/07/01 11:43:43;;;;;;;;;;;;;;;19.75;100.00;100232.72;4993679;28;19936;-70
2023/07/01 11:46:12;;;;;;;;;;;;;;;19.74;100.00;100233.78;5000069;28;20413;-67
2023/07/01 11:48:39;;;;;;;;;;;;;;;19.78;100.00;100228.84;4999562;28;19929;-67
2023/07/01 11:51:06;;;;;;;;;;;;;;;19.69;100.00;100235.44;5005299;28;19929;-67
2023/07/01 11:53:34;;;;;;;;;;;;;;;19.62;100.00;100237.34;4992055;28;19929;-68
2023/07/01 11:56:02;;;;;;;;;;;;;;;19.70;100.00;100243.22;5000301;28;19985;-69
2023/07/01 11:58:31;;;;;;;;;;;;;;;19.76;100.00;100238.88;5001389;28;19926;-68
2023/07/01 12:00:58;;;;;;;;;;;;;;;19.73;100.00;100236.66;4995710;28;19929;-68
2023/07/01 12:03:30;;;;;;;;;;;;;;;19.65;100.00;100237.72;4991078;28;19929;-67
2023/07/01 12:05:57;;;;;;;;;;;;;;;19.70;100.00;100229.91;5004383;28;20530;-68
2023/07/01 12:08:23;;;;;;;;;;;;;;;19.66;100.00;100233.19;4988285;28;19925;-69
2023/07/01 12:10:50;;;;;;;;;;;;;;;19.68;100.00;100237.28;5007571;28;19976;-68
2023/07/01 12:13:29;;;;;;;;;;;;;;;19.69;100.00;100241.56;4995200;28;20329;-66
2023/07/01 12:15:57;;;;;;;;;;;;;;;19.64;100.00;100238.78;5001442;28;20250;-67
2023/07/01 12:18:28;;;;;;;;;;;;;;;19.68;100.00;100236.47;5003678;28;20321;-66
2023/07/01 12:20:54;;;;;;;;;;;;;;;19.71;100.00;100238.69;5007423;28;19929;-66
2023/07/01 12:23:21;;;;;;;;;;;;;;;19.74;100.00;100239.09;4999738;28;19925;-67
2023/07/01 12:25:48;;;;;;;;;;;;;;;19.68;100.00;100245.28;4999987;28;19929;-69
2023/07/01 12:28:15;;;;;;;;;;;;;;;19.66;100.00;100246.50;5001629;28;20147;-66
2023/07/01 12:30:41;;;;;;;;;;;;;;;19.56;100.00;100255.00;4998881;28;19965;-67
2023/07/01 12:33:08;;;;;;;;;;;;;;;19.56;100.00;100261.16;5006913;28;20175;-67